ダルエスサラーム の空港の天気 - METARとTAF

ジュリウス・ニエレレ国際空港(ダルエスサラーム) ( HTDA / DAR ) - タンザニア ダルエスサラーム
飛行場実況気象(Metar)
観測時間12/10 08:00 EAT (12/10 05:00 UTC)
風向・風速北北西 3m/s
視程10km以上
天気現象
全天の4割程度の雲 雲底高度 400m
少しの雲 雲底高度 460m
気温27℃
湿度79%
気圧1014hPa
METARHTDA 100500Z 33005KT 9999 SCT013 FEW015CB 27/23 Q1014 REDZ NOSIG
過去の天気等 Google飛行場航空写真 Wunderground天気予報

過去48時間のMETAR

飛行場予報(TAF)
発表時間: 12/10 02:00 EAT (12/09 23:00 UTC)
予報対象時間: 10日3時 EAT ~ 11日9時 EAT
風向・風速静穏
視程10km以上
全天の4割程度の雲 雲底高度 430m
10日6時 EAT ~ 10日10時 EAT に一時的に
天気現象雷雨
全天の8割程度の雲 雲底高度 490m
少しの積乱雲 雲底高度 550m
10日11時 EAT ~ 10日14時 EAT に徐々に
風向・風速北北西 5m/s
TAF HTDA 092300Z 1000/1106 00000KT 9999 SCT014
TEMPO 1003/1007 TSRA BKN016 FEW018CB
BECMG 1008/1011 33010KT